sensor_id;sensor_type;location;lat;lon;timestamp;temperature;humidity
2042;DHT22;1026;51.460;7.252;2023-03-05T00:01:51;5.90;92.20
2042;DHT22;1026;51.460;7.252;2023-03-05T00:04:17;5.90;92.30
2042;DHT22;1026;51.460;7.252;2023-03-05T00:06:43;5.90;92.40
2042;DHT22;1026;51.460;7.252;2023-03-05T00:09:09;5.90;92.30
2042;DHT22;1026;51.460;7.252;2023-03-05T00:11:34;5.90;92.30
2042;DHT22;1026;51.460;7.252;2023-03-05T00:14:02;5.90;92.30
2042;DHT22;1026;51.460;7.252;2023-03-05T00:16:29;5.90;92.30
2042;DHT22;1026;51.460;7.252;2023-03-05T00:18:56;5.90;92.30
2042;DHT22;1026;51.460;7.252;2023-03-05T00:21:25;5.90;92.30
2042;DHT22;1026;51.460;7.252;2023-03-05T00:23:52;5.90;92.30
2042;DHT22;1026;51.460;7.252;2023-03-05T00:26:19;5.90;92.30
2042;DHT22;1026;51.460;7.252;2023-03-05T00:28:45;5.80;92.30
2042;DHT22;1026;51.460;7.252;2023-03-05T00:31:15;5.90;92.40
2042;DHT22;1026;51.460;7.252;2023-03-05T00:33:58;5.90;92.40
2042;DHT22;1026;51.460;7.252;2023-03-05T00:36:24;5.90;92.40
2042;DHT22;1026;51.460;7.252;2023-03-05T00:38:49;5.90;92.40
2042;DHT22;1026;51.460;7.252;2023-03-05T00:41:15;5.80;92.30
2042;DHT22;1026;51.460;7.252;2023-03-05T00:43:41;5.80;92.30
2042;DHT22;1026;51.460;7.252;2023-03-05T00:46:07;5.80;92.30
2042;DHT22;1026;51.460;7.252;2023-03-05T00:48:32;5.80;92.30
2042;DHT22;1026;51.460;7.252;2023-03-05T00:50:58;5.80;92.40
2042;DHT22;1026;51.460;7.252;2023-03-05T00:53:24;5.80;92.40
2042;DHT22;1026;51.460;7.252;2023-03-05T00:55:49;5.80;92.40
2042;DHT22;1026;51.460;7.252;2023-03-05T00:58:15;5.80;92.40
2042;DHT22;1026;51.460;7.252;2023-03-05T01:00:41;5.80;92.40
2042;DHT22;1026;51.460;7.252;2023-03-05T01:03:06;5.80;92.40
2042;DHT22;1026;51.460;7.252;2023-03-05T01:05:32;5.80;92.40
2042;DHT22;1026;51.460;7.252;2023-03-05T01:07:58;5.80;92.40
2042;DHT22;1026;51.460;7.252;2023-03-05T01:10:24;5.80;92.40
2042;DHT22;1026;51.460;7.252;2023-03-05T01:12:52;5.80;92.40
2042;DHT22;1026;51.460;7.252;2023-03-05T01:15:17;5.80;92.40
2042;DHT22;1026;51.460;7.252;2023-03-05T01:17:43;5.80;92.40
2042;DHT22;1026;51.460;7.252;2023-03-05T01:20:12;5.80;92.40
2042;DHT22;1026;51.460;7.252;2023-03-05T01:22:38;5.80;92.50
2042;DHT22;1026;51.460;7.252;2023-03-05T01:25:04;5.80;92.40
2042;DHT22;1026;51.460;7.252;2023-03-05T01:27:30;5.80;92.50
2042;DHT22;1026;51.460;7.252;2023-03-05T01:29:56;5.80;92.50
2042;DHT22;1026;51.460;7.252;2023-03-05T01:32:21;5.80;92.50
2042;DHT22;1026;51.460;7.252;2023-03-05T01:34:47;5.80;92.50
2042;DHT22;1026;51.460;7.252;2023-03-05T01:37:13;5.80;92.50
2042;DHT22;1026;51.460;7.252;2023-03-05T01:39:38;5.70;92.40
2042;DHT22;1026;51.460;7.252;2023-03-05T01:42:04;5.70;92.50
2042;DHT22;1026;51.460;7.252;2023-03-05T01:44:31;5.70;92.50
2042;DHT22;1026;51.460;7.252;2023-03-05T01:46:57;5.70;92.50
2042;DHT22;1026;51.460;7.252;2023-03-05T01:49:26;5.70;92.50
2042;DHT22;1026;51.460;7.252;2023-03-05T01:52:18;5.70;92.50
2042;DHT22;1026;51.460;7.252;2023-03-05T01:54:47;5.70;92.50
2042;DHT22;1026;51.460;7.252;2023-03-05T01:57:17;5.70;92.50
2042;DHT22;1026;51.460;7.252;2023-03-05T01:59:48;5.70;92.50
2042;DHT22;1026;51.460;7.252;2023-03-05T02:02:15;5.70;92.50
2042;DHT22;1026;51.460;7.252;2023-03-05T02:04:50;5.70;92.50
2042;DHT22;1026;51.460;7.252;2023-03-05T02:07:17;5.70;92.60
2042;DHT22;1026;51.460;7.252;2023-03-05T02:09:43;5.70;92.50
2042;DHT22;1026;51.460;7.252;2023-03-05T02:12:10;5.70;92.50
2042;DHT22;1026;51.460;7.252;2023-03-05T02:14:37;5.70;92.50
2042;DHT22;1026;51.460;7.252;2023-03-05T02:17:04;5.70;92.60
2042;DHT22;1026;51.460;7.252;2023-03-05T02:19:49;5.70;92.60
2042;DHT22;1026;51.460;7.252;2023-03-05T02:22:16;5.70;92.60
2042;DHT22;1026;51.460;7.252;2023-03-05T02:24:44;5.70;92.60
2042;DHT22;1026;51.460;7.252;2023-03-05T02:27:10;5.70;92.60
2042;DHT22;1026;51.460;7.252;2023-03-05T02:29:39;5.70;92.60
2042;DHT22;1026;51.460;7.252;2023-03-05T02:32:06;5.70;92.60
2042;DHT22;1026;51.460;7.252;2023-03-05T02:34:33;5.70;92.60
2042;DHT22;1026;51.460;7.252;2023-03-05T02:36:58;5.70;92.60
2042;DHT22;1026;51.460;7.252;2023-03-05T02:39:24;5.70;92.60
2042;DHT22;1026;51.460;7.252;2023-03-05T02:41:50;5.60;92.50
2042;DHT22;1026;51.460;7.252;2023-03-05T02:44:15;5.70;92.60
2042;DHT22;1026;51.460;7.252;2023-03-05T02:46:41;5.70;92.50
2042;DHT22;1026;51.460;7.252;2023-03-05T02:49:07;5.70;92.60
2042;DHT22;1026;51.460;7.252;2023-03-05T02:51:32;5.60;92.50
2042;DHT22;1026;51.460;7.252;2023-03-05T02:53:58;5.70;92.60
2042;DHT22;1026;51.460;7.252;2023-03-05T02:56:23;5.70;92.60
2042;DHT22;1026;51.460;7.252;2023-03-05T02:58:49;5.60;92.50
2042;DHT22;1026;51.460;7.252;2023-03-05T03:01:15;5.60;92.50
2042;DHT22;1026;51.460;7.252;2023-03-05T03:03:40;5.60;92.60
2042;DHT22;1026;51.460;7.252;2023-03-05T03:06:06;5.60;92.50
2042;DHT22;1026;51.460;7.252;2023-03-05T03:08:32;5.60;92.60
2042;DHT22;1026;51.460;7.252;2023-03-05T03:11:04;5.60;92.60
2042;DHT22;1026;51.460;7.252;2023-03-05T03:13:29;5.60;92.60
2042;DHT22;1026;51.460;7.252;2023-03-05T03:16:11;5.60;92.60
2042;DHT22;1026;51.460;7.252;2023-03-05T03:18:37;5.60;92.60
2042;DHT22;1026;51.460;7.252;2023-03-05T03:21:04;5.60;92.60
2042;DHT22;1026;51.460;7.252;2023-03-05T03:23:30;5.60;92.60
2042;DHT22;1026;51.460;7.252;2023-03-05T03:25:56;5.60;92.60
2042;DHT22;1026;51.460;7.252;2023-03-05T03:28:22;5.60;92.60
2042;DHT22;1026;51.460;7.252;2023-03-05T03:30:48;5.60;92.60
2042;DHT22;1026;51.460;7.252;2023-03-05T03:33:14;5.60;92.60
2042;DHT22;1026;51.460;7.252;2023-03-05T03:35:40;5.60;92.60
2042;DHT22;1026;51.460;7.252;2023-03-05T03:38:05;5.50;92.60
2042;DHT22;1026;51.460;7.252;2023-03-05T03:40:31;5.50;92.60
2042;DHT22;1026;51.460;7.252;2023-03-05T03:42:56;5.60;92.70
2042;DHT22;1026;51.460;7.252;2023-03-05T03:45:22;5.60;92.70
2042;DHT22;1026;51.460;7.252;2023-03-05T03:47:49;5.50;92.60
2042;DHT22;1026;51.460;7.252;2023-03-05T03:50:15;5.50;92.60
2042;DHT22;1026;51.460;7.252;2023-03-05T03:52:40;5.50;92.60
2042;DHT22;1026;51.460;7.252;2023-03-05T03:55:06;5.50;92.60
2042;DHT22;1026;51.460;7.252;2023-03-05T03:57:32;5.50;92.60
2042;DHT22;1026;51.460;7.252;2023-03-05T04:00:05;5.50;92.60
2042;DHT22;1026;51.460;7.252;2023-03-05T04:02:32;5.50;92.60
2042;DHT22;1026;51.460;7.252;2023-03-05T04:04:58;5.50;92.60
2042;DHT22;1026;51.460;7.252;2023-03-05T04:07:23;5.50;92.60
2042;DHT22;1026;51.460;7.252;2023-03-05T04:09:49;5.50;92.70
2042;DHT22;1026;51.460;7.252;2023-03-05T04:12:15;5.50;93.00
2042;DHT22;1026;51.460;7.252;2023-03-05T04:14:44;5.50;92.70
2042;DHT22;1026;51.460;7.252;2023-03-05T04:17:10;5.50;92.70
2042;DHT22;1026;51.460;7.252;2023-03-05T04:19:36;5.50;92.70
2042;DHT22;1026;51.460;7.252;2023-03-05T04:22:01;5.50;92.70
2042;DHT22;1026;51.460;7.252;2023-03-05T04:24:27;5.50;92.70
2042;DHT22;1026;51.460;7.252;2023-03-05T04:26:53;5.50;92.70
2042;DHT22;1026;51.460;7.252;2023-03-05T04:29:18;5.50;92.70
2042;DHT22;1026;51.460;7.252;2023-03-05T04:31:44;5.40;92.70
2042;DHT22;1026;51.460;7.252;2023-03-05T04:34:10;5.40;92.70
2042;DHT22;1026;51.460;7.252;2023-03-05T04:36:35;5.50;92.80
2042;DHT22;1026;51.460;7.252;2023-03-05T04:39:02;5.40;92.70
2042;DHT22;1026;51.460;7.252;2023-03-05T04:41:28;5.40;92.70
2042;DHT22;1026;51.460;7.252;2023-03-05T04:43:53;5.40;92.70
2042;DHT22;1026;51.460;7.252;2023-03-05T04:46:19;5.40;92.70
2042;DHT22;1026;51.460;7.252;2023-03-05T04:48:44;5.40;92.70
2042;DHT22;1026;51.460;7.252;2023-03-05T04:51:10;5.30;92.70
2042;DHT22;1026;51.460;7.252;2023-03-05T04:53:36;5.40;92.70
2042;DHT22;1026;51.460;7.252;2023-03-05T04:56:02;5.40;92.70
2042;DHT22;1026;51.460;7.252;2023-03-05T04:58:28;5.40;92.70
2042;DHT22;1026;51.460;7.252;2023-03-05T05:00:53;5.40;92.70
2042;DHT22;1026;51.460;7.252;2023-03-05T05:03:19;5.40;92.70
2042;DHT22;1026;51.460;7.252;2023-03-05T05:05:44;5.40;92.70
2042;DHT22;1026;51.460;7.252;2023-03-05T05:08:10;5.40;92.70
2042;DHT22;1026;51.460;7.252;2023-03-05T05:10:36;5.40;92.80
2042;DHT22;1026;51.460;7.252;2023-03-05T05:13:05;5.40;92.80
2042;DHT22;1026;51.460;7.252;2023-03-05T05:15:30;5.40;92.80
2042;DHT22;1026;51.460;7.252;2023-03-05T05:17:56;5.40;92.80
2042;DHT22;1026;51.460;7.252;2023-03-05T05:20:22;5.40;92.80
2042;DHT22;1026;51.460;7.252;2023-03-05T05:22:48;5.40;92.80
2042;DHT22;1026;51.460;7.252;2023-03-05T05:25:14;5.40;92.80
2042;DHT22;1026;51.460;7.252;2023-03-05T05:27:39;5.40;92.80
2042;DHT22;1026;51.460;7.252;2023-03-05T05:30:06;5.40;92.80
2042;DHT22;1026;51.460;7.252;2023-03-05T05:32:32;5.40;92.80
2042;DHT22;1026;51.460;7.252;2023-03-05T05:34:58;5.30;92.80
2042;DHT22;1026;51.460;7.252;2023-03-05T05:37:24;5.30;92.80
2042;DHT22;1026;51.460;7.252;2023-03-05T05:39:50;5.30;92.80
2042;DHT22;1026;51.460;7.252;2023-03-05T05:42:18;5.30;92.80
2042;DHT22;1026;51.460;7.252;2023-03-05T05:44:44;5.30;92.80
2042;DHT22;1026;51.460;7.252;2023-03-05T05:47:09;5.30;92.80
2042;DHT22;1026;51.460;7.252;2023-03-05T05:49:35;5.30;92.80
2042;DHT22;1026;51.460;7.252;2023-03-05T05:52:01;5.30;92.80
2042;DHT22;1026;51.460;7.252;2023-03-05T05:54:26;5.30;92.80
2042;DHT22;1026;51.460;7.252;2023-03-05T05:56:52;5.30;92.80
2042;DHT22;1026;51.460;7.252;2023-03-05T05:59:18;5.30;92.80
2042;DHT22;1026;51.460;7.252;2023-03-05T06:01:44;5.30;92.80
2042;DHT22;1026;51.460;7.252;2023-03-05T06:04:09;5.30;92.80
2042;DHT22;1026;51.460;7.252;2023-03-05T06:06:35;5.20;92.80
2042;DHT22;1026;51.460;7.252;2023-03-05T06:09:00;5.30;92.80
2042;DHT22;1026;51.460;7.252;2023-03-05T06:11:26;5.30;92.90
2042;DHT22;1026;51.460;7.252;2023-03-05T06:13:52;5.30;92.90
2042;DHT22;1026;51.460;7.252;2023-03-05T06:16:21;5.30;92.80
2042;DHT22;1026;51.460;7.252;2023-03-05T06:18:49;5.30;92.90
2042;DHT22;1026;51.460;7.252;2023-03-05T06:21:17;5.30;92.90
2042;DHT22;1026;51.460;7.252;2023-03-05T06:23:43;5.30;92.90
2042;DHT22;1026;51.460;7.252;2023-03-05T06:26:11;5.30;92.90
2042;DHT22;1026;51.460;7.252;2023-03-05T06:28:37;5.30;92.90
2042;DHT22;1026;51.460;7.252;2023-03-05T06:31:13;5.30;92.90
2042;DHT22;1026;51.460;7.252;2023-03-05T06:33:39;5.30;92.90
2042;DHT22;1026;51.460;7.252;2023-03-05T06:36:07;5.30;92.90
2042;DHT22;1026;51.460;7.252;2023-03-05T06:38:56;5.30;92.90
2042;DHT22;1026;51.460;7.252;2023-03-05T06:41:25;5.20;92.90
2042;DHT22;1026;51.460;7.252;2023-03-05T06:43:51;5.30;92.90
2042;DHT22;1026;51.460;7.252;2023-03-05T06:46:20;5.20;92.90
2042;DHT22;1026;51.460;7.252;2023-03-05T06:48:47;5.30;92.90
2042;DHT22;1026;51.460;7.252;2023-03-05T06:51:15;5.20;92.90
2042;DHT22;1026;51.460;7.252;2023-03-05T06:53:42;5.20;92.90
2042;DHT22;1026;51.460;7.252;2023-03-05T06:56:08;5.20;92.90
2042;DHT22;1026;51.460;7.252;2023-03-05T06:58:34;5.20;92.90
2042;DHT22;1026;51.460;7.252;2023-03-05T07:01:00;5.20;92.90
2042;DHT22;1026;51.460;7.252;2023-03-05T07:03:26;5.20;92.90
2042;DHT22;1026;51.460;7.252;2023-03-05T07:05:51;5.20;92.90
2042;DHT22;1026;51.460;7.252;2023-03-05T07:08:17;5.20;93.00
2042;DHT22;1026;51.460;7.252;2023-03-05T07:10:43;5.10;92.90
2042;DHT22;1026;51.460;7.252;2023-03-05T07:13:09;5.20;93.00
2042;DHT22;1026;51.460;7.252;2023-03-05T07:15:38;5.20;93.00
2042;DHT22;1026;51.460;7.252;2023-03-05T07:18:04;5.20;93.00
2042;DHT22;1026;51.460;7.252;2023-03-05T07:20:32;5.20;93.00
2042;DHT22;1026;51.460;7.252;2023-03-05T07:22:58;5.20;93.00
2042;DHT22;1026;51.460;7.252;2023-03-05T07:25:24;5.20;93.00
2042;DHT22;1026;51.460;7.252;2023-03-05T07:27:49;5.20;93.00
2042;DHT22;1026;51.460;7.252;2023-03-05T07:30:23;5.20;93.00
2042;DHT22;1026;51.460;7.252;2023-03-05T07:32:49;5.20;93.00
2042;DHT22;1026;51.460;7.252;2023-03-05T07:35:14;5.20;93.10
2042;DHT22;1026;51.460;7.252;2023-03-05T07:37:40;5.20;93.00
2042;DHT22;1026;51.460;7.252;2023-03-05T07:40:12;5.20;93.00
2042;DHT22;1026;51.460;7.252;2023-03-05T07:42:38;5.20;93.10
2042;DHT22;1026;51.460;7.252;2023-03-05T07:45:03;5.10;93.00
2042;DHT22;1026;51.460;7.252;2023-03-05T07:47:29;5.20;93.10
2042;DHT22;1026;51.460;7.252;2023-03-05T07:49:55;5.20;93.10
2042;DHT22;1026;51.460;7.252;2023-03-05T07:52:20;5.20;93.10
2042;DHT22;1026;51.460;7.252;2023-03-05T07:54:46;5.20;93.10
2042;DHT22;1026;51.460;7.252;2023-03-05T07:57:14;5.20;93.00
2042;DHT22;1026;51.460;7.252;2023-03-05T07:59:39;5.20;93.10
2042;DHT22;1026;51.460;7.252;2023-03-05T08:02:06;5.20;93.10
2042;DHT22;1026;51.460;7.252;2023-03-05T08:04:32;5.20;93.00
2042;DHT22;1026;51.460;7.252;2023-03-05T08:06:58;5.20;93.10
2042;DHT22;1026;51.460;7.252;2023-03-05T08:09:24;5.20;93.10
2042;DHT22;1026;51.460;7.252;2023-03-05T08:11:50;5.20;93.10
2042;DHT22;1026;51.460;7.252;2023-03-05T08:14:16;5.20;93.10
2042;DHT22;1026;51.460;7.252;2023-03-05T08:16:41;5.20;93.10
2042;DHT22;1026;51.460;7.252;2023-03-05T08:19:08;5.20;93.10
2042;DHT22;1026;51.460;7.252;2023-03-05T08:21:35;5.20;93.10
2042;DHT22;1026;51.460;7.252;2023-03-05T08:24:03;5.20;93.10
2042;DHT22;1026;51.460;7.252;2023-03-05T08:26:30;5.20;93.10
2042;DHT22;1026;51.460;7.252;2023-03-05T08:28:56;5.20;93.10
2042;DHT22;1026;51.460;7.252;2023-03-05T08:31:24;5.20;93.10
2042;DHT22;1026;51.460;7.252;2023-03-05T08:33:53;5.20;93.10
2042;DHT22;1026;51.460;7.252;2023-03-05T08:36:19;5.20;93.10
2042;DHT22;1026;51.460;7.252;2023-03-05T08:38:45;5.20;93.20
2042;DHT22;1026;51.460;7.252;2023-03-05T08:41:18;5.20;93.10
2042;DHT22;1026;51.460;7.252;2023-03-05T08:43:44;5.20;93.20
2042;DHT22;1026;51.460;7.252;2023-03-05T08:46:12;5.20;93.10
2042;DHT22;1026;51.460;7.252;2023-03-05T08:48:38;5.30;93.10
2042;DHT22;1026;51.460;7.252;2023-03-05T08:51:08;5.20;93.10
2042;DHT22;1026;51.460;7.252;2023-03-05T08:53:34;5.20;93.20
2042;DHT22;1026;51.460;7.252;2023-03-05T08:56:00;5.20;93.10
2042;DHT22;1026;51.460;7.252;2023-03-05T08:58:26;5.10;93.10
2042;DHT22;1026;51.460;7.252;2023-03-05T09:00:51;5.20;93.20
2042;DHT22;1026;51.460;7.252;2023-03-05T09:03:17;5.20;93.10
2042;DHT22;1026;51.460;7.252;2023-03-05T09:05:43;5.20;93.20
2042;DHT22;1026;51.460;7.252;2023-03-05T09:08:08;5.20;93.10
2042;DHT22;1026;51.460;7.252;2023-03-05T09:10:34;5.30;93.20
2042;DHT22;1026;51.460;7.252;2023-03-05T09:13:00;5.30;93.20
2042;DHT22;1026;51.460;7.252;2023-03-05T09:15:26;5.30;93.20
2042;DHT22;1026;51.460;7.252;2023-03-05T09:17:51;5.20;93.10
2042;DHT22;1026;51.460;7.252;2023-03-05T09:20:17;5.30;93.20
2042;DHT22;1026;51.460;7.252;2023-03-05T09:22:43;5.30;93.20
2042;DHT22;1026;51.460;7.252;2023-03-05T09:25:10;5.30;93.20
2042;DHT22;1026;51.460;7.252;2023-03-05T09:27:37;5.30;93.20
2042;DHT22;1026;51.460;7.252;2023-03-05T09:30:04;5.30;93.20
2042;DHT22;1026;51.460;7.252;2023-03-05T09:32:30;5.30;93.20
2042;DHT22;1026;51.460;7.252;2023-03-05T09:34:56;5.30;93.20
2042;DHT22;1026;51.460;7.252;2023-03-05T09:37:25;5.30;93.20
2042;DHT22;1026;51.460;7.252;2023-03-05T09:39:52;5.30;93.20
2042;DHT22;1026;51.460;7.252;2023-03-05T09:45:11;5.30;93.10
2042;DHT22;1026;51.460;7.252;2023-03-05T09:47:53;5.30;93.20
2042;DHT22;1026;51.460;7.252;2023-03-05T09:53:30;5.20;93.10
2042;DHT22;1026;51.460;7.252;2023-03-05T09:56:09;5.20;93.10
2042;DHT22;1026;51.460;7.252;2023-03-05T09:58:39;5.30;93.10
2042;DHT22;1026;51.460;7.252;2023-03-05T10:01:10;5.30;93.20
2042;DHT22;1026;51.460;7.252;2023-03-05T10:03:55;5.30;93.20
2042;DHT22;1026;51.460;7.252;2023-03-05T10:06:26;5.40;93.20
2042;DHT22;1026;51.460;7.252;2023-03-05T10:08:57;5.40;93.20
2042;DHT22;1026;51.460;7.252;2023-03-05T10:11:33;5.40;93.20
2042;DHT22;1026;51.460;7.252;2023-03-05T10:14:02;5.40;93.20
2042;DHT22;1026;51.460;7.252;2023-03-05T10:19:14;5.40;93.30
2042;DHT22;1026;51.460;7.252;2023-03-05T10:21:52;5.40;93.20
2042;DHT22;1026;51.460;7.252;2023-03-05T10:27:07;5.40;93.30
2042;DHT22;1026;51.460;7.252;2023-03-05T10:29:55;5.40;93.30
2042;DHT22;1026;51.460;7.252;2023-03-05T10:32:39;5.40;93.30
2042;DHT22;1026;51.460;7.252;2023-03-05T10:38:07;5.40;93.30
2042;DHT22;1026;51.460;7.252;2023-03-05T10:40:39;5.40;93.30
2042;DHT22;1026;51.460;7.252;2023-03-05T10:43:23;5.40;93.30
2042;DHT22;1026;51.460;7.252;2023-03-05T10:45:53;5.40;93.20
2042;DHT22;1026;51.460;7.252;2023-03-05T10:48:34;5.40;93.30
2042;DHT22;1026;51.460;7.252;2023-03-05T10:51:14;5.40;93.20
2042;DHT22;1026;51.460;7.252;2023-03-05T10:56:10;5.50;93.30
2042;DHT22;1026;51.460;7.252;2023-03-05T10:58:36;5.30;93.10
2042;DHT22;1026;51.460;7.252;2023-03-05T11:01:19;5.50;93.20
2042;DHT22;1026;51.460;7.252;2023-03-05T11:04:01;5.50;93.20
2042;DHT22;1026;51.460;7.252;2023-03-05T11:06:44;5.50;93.20
2042;DHT22;1026;51.460;7.252;2023-03-05T11:12:18;5.50;93.20
2042;DHT22;1026;51.460;7.252;2023-03-05T11:17:38;5.50;93.10
2042;DHT22;1026;51.460;7.252;2023-03-05T11:20:30;5.50;93.20
2042;DHT22;1026;51.460;7.252;2023-03-05T11:23:14;5.50;93.20
2042;DHT22;1026;51.460;7.252;2023-03-05T11:25:52;5.40;93.10
2042;DHT22;1026;51.460;7.252;2023-03-05T11:28:21;5.60;93.20
2042;DHT22;1026;51.460;7.252;2023-03-05T11:30:58;5.60;93.20
2042;DHT22;1026;51.460;7.252;2023-03-05T11:33:24;5.60;93.20
2042;DHT22;1026;51.460;7.252;2023-03-05T11:35:52;5.50;93.10
2042;DHT22;1026;51.460;7.252;2023-03-05T11:38:19;5.60;93.10
2042;DHT22;1026;51.460;7.252;2023-03-05T11:40:46;5.60;93.10
2042;DHT22;1026;51.460;7.252;2023-03-05T11:43:29;5.70;93.20
2042;DHT22;1026;51.460;7.252;2023-03-05T11:46:01;5.70;93.10
2042;DHT22;1026;51.460;7.252;2023-03-05T11:48:36;5.50;93.30
2042;DHT22;1026;51.460;7.252;2023-03-05T11:51:21;5.70;93.10
2042;DHT22;1026;51.460;7.252;2023-03-05T11:53:55;5.70;93.10
2042;DHT22;1026;51.460;7.252;2023-03-05T11:56:35;5.60;93.00
2042;DHT22;1026;51.460;7.252;2023-03-05T11:59:19;5.70;93.10
2042;DHT22;1026;51.460;7.252;2023-03-05T12:01:49;5.70;93.00
2042;DHT22;1026;51.460;7.252;2023-03-05T12:04:34;5.70;93.10
2042;DHT22;1026;51.460;7.252;2023-03-05T12:07:02;5.80;93.10
2042;DHT22;1026;51.460;7.252;2023-03-05T12:20:13;5.80;93.00
2042;DHT22;1026;51.460;7.252;2023-03-05T12:22:41;5.90;92.90
2042;DHT22;1026;51.460;7.252;2023-03-05T12:25:24;5.90;93.00
2042;DHT22;1026;51.460;7.252;2023-03-05T12:27:50;5.90;92.80
2042;DHT22;1026;51.460;7.252;2023-03-05T12:32:59;5.90;92.80
2042;DHT22;1026;51.460;7.252;2023-03-05T12:35:26;5.90;92.80
2042;DHT22;1026;51.460;7.252;2023-03-05T12:40:26;5.90;92.80
2042;DHT22;1026;51.460;7.252;2023-03-05T12:43:02;5.90;92.80
2042;DHT22;1026;51.460;7.252;2023-03-05T12:45:37;5.90;92.80
2042;DHT22;1026;51.460;7.252;2023-03-05T12:50:48;5.90;92.80
2042;DHT22;1026;51.460;7.252;2023-03-05T12:53:18;6.00;92.70
2042;DHT22;1026;51.460;7.252;2023-03-05T12:55:53;5.90;92.70
2042;DHT22;1026;51.460;7.252;2023-03-05T12:58:44;6.00;92.80
2042;DHT22;1026;51.460;7.252;2023-03-05T13:01:31;5.90;92.70
2042;DHT22;1026;51.460;7.252;2023-03-05T13:04:03;6.00;92.80
2042;DHT22;1026;51.460;7.252;2023-03-05T13:06:37;6.00;92.70
2042;DHT22;1026;51.460;7.252;2023-03-05T13:11:53;6.00;92.70
2042;DHT22;1026;51.460;7.252;2023-03-05T13:19:52;6.10;92.60
2042;DHT22;1026;51.460;7.252;2023-03-05T13:22:18;6.00;92.60
2042;DHT22;1026;51.460;7.252;2023-03-05T13:24:43;6.10;92.60
2042;DHT22;1026;51.460;7.252;2023-03-05T13:27:29;6.00;92.60
2042;DHT22;1026;51.460;7.252;2023-03-05T13:29:55;6.00;92.60
2042;DHT22;1026;51.460;7.252;2023-03-05T13:32:30;6.00;92.60
2042;DHT22;1026;51.460;7.252;2023-03-05T13:34:59;6.10;92.60
2042;DHT22;1026;51.460;7.252;2023-03-05T13:37:26;6.10;92.60
2042;DHT22;1026;51.460;7.252;2023-03-05T13:39:58;6.10;92.50
2042;DHT22;1026;51.460;7.252;2023-03-05T13:42:28;6.10;92.60
2042;DHT22;1026;51.460;7.252;2023-03-05T13:44:59;6.20;92.60
2042;DHT22;1026;51.460;7.252;2023-03-05T13:47:27;6.20;92.60
2042;DHT22;1026;51.460;7.252;2023-03-05T13:49:57;6.20;92.60
2042;DHT22;1026;51.460;7.252;2023-03-05T13:52:29;6.10;92.50
2042;DHT22;1026;51.460;7.252;2023-03-05T13:54:58;6.20;92.60
2042;DHT22;1026;51.460;7.252;2023-03-05T13:57:34;6.10;92.40
2042;DHT22;1026;51.460;7.252;2023-03-05T14:00:22;6.10;92.50
2042;DHT22;1026;51.460;7.252;2023-03-05T14:02:49;6.20;92.40
2042;DHT22;1026;51.460;7.252;2023-03-05T14:05:15;6.20;92.30
2042;DHT22;1026;51.460;7.252;2023-03-05T14:07:42;6.20;92.30
2042;DHT22;1026;51.460;7.252;2023-03-05T14:10:30;6.30;92.50
2042;DHT22;1026;51.460;7.252;2023-03-05T14:13:16;6.40;92.40
2042;DHT22;1026;51.460;7.252;2023-03-05T14:16:02;6.30;92.30
2042;DHT22;1026;51.460;7.252;2023-03-05T14:18:28;6.30;92.30
2042;DHT22;1026;51.460;7.252;2023-03-05T14:21:07;6.30;92.30
2042;DHT22;1026;51.460;7.252;2023-03-05T14:23:41;6.30;91.90
2042;DHT22;1026;51.460;7.252;2023-03-05T14:31:23;6.30;92.40
2042;DHT22;1026;51.460;7.252;2023-03-05T14:33:51;6.30;92.30
2042;DHT22;1026;51.460;7.252;2023-03-05T14:36:24;6.30;92.10
2042;DHT22;1026;51.460;7.252;2023-03-05T14:38:55;6.30;92.30
2042;DHT22;1026;51.460;7.252;2023-03-05T14:43:59;6.40;92.30
2042;DHT22;1026;51.460;7.252;2023-03-05T14:46:26;6.30;92.10
2042;DHT22;1026;51.460;7.252;2023-03-05T14:48:52;6.30;92.00
2042;DHT22;1026;51.460;7.252;2023-03-05T14:51:19;6.30;92.00
2042;DHT22;1026;51.460;7.252;2023-03-05T14:53:46;6.30;92.30
2042;DHT22;1026;51.460;7.252;2023-03-05T14:56:21;6.30;92.10
2042;DHT22;1026;51.460;7.252;2023-03-05T14:58:49;6.30;92.20
2042;DHT22;1026;51.460;7.252;2023-03-05T15:01:15;6.30;92.20
2042;DHT22;1026;51.460;7.252;2023-03-05T15:03:41;6.40;92.40
2042;DHT22;1026;51.460;7.252;2023-03-05T15:06:18;6.30;92.30
2042;DHT22;1026;51.460;7.252;2023-03-05T15:08:46;6.30;92.30
2042;DHT22;1026;51.460;7.252;2023-03-05T15:11:12;6.40;92.30
2042;DHT22;1026;51.460;7.252;2023-03-05T15:13:38;6.30;92.20
2042;DHT22;1026;51.460;7.252;2023-03-05T15:16:05;6.30;92.40
2042;DHT22;1026;51.460;7.252;2023-03-05T15:18:31;6.40;92.30
2042;DHT22;1026;51.460;7.252;2023-03-05T15:20:57;6.40;92.30
2042;DHT22;1026;51.460;7.252;2023-03-05T15:23:23;6.40;92.20
2042;DHT22;1026;51.460;7.252;2023-03-05T15:25:49;6.40;92.10
2042;DHT22;1026;51.460;7.252;2023-03-05T15:28:16;6.40;92.10
2042;DHT22;1026;51.460;7.252;2023-03-05T15:30:45;6.30;92.20
2042;DHT22;1026;51.460;7.252;2023-03-05T15:33:18;6.40;92.30
2042;DHT22;1026;51.460;7.252;2023-03-05T15:36:26;6.40;92.30
2042;DHT22;1026;51.460;7.252;2023-03-05T15:38:52;6.40;92.30
2042;DHT22;1026;51.460;7.252;2023-03-05T15:41:18;6.50;92.40
2042;DHT22;1026;51.460;7.252;2023-03-05T15:43:48;6.40;92.10
2042;DHT22;1026;51.460;7.252;2023-03-05T15:46:14;6.40;92.30
2042;DHT22;1026;51.460;7.252;2023-03-05T15:48:48;6.40;92.30
2042;DHT22;1026;51.460;7.252;2023-03-05T15:51:16;6.40;92.30
2042;DHT22;1026;51.460;7.252;2023-03-05T15:53:46;6.50;92.30
2042;DHT22;1026;51.460;7.252;2023-03-05T15:56:16;6.40;92.10
2042;DHT22;1026;51.460;7.252;2023-03-05T15:58:43;6.40;92.30
2042;DHT22;1026;51.460;7.252;2023-03-05T16:01:11;6.50;92.30
2042;DHT22;1026;51.460;7.252;2023-03-05T16:03:38;6.40;92.30
2042;DHT22;1026;51.460;7.252;2023-03-05T16:06:06;6.40;92.30
2042;DHT22;1026;51.460;7.252;2023-03-05T16:08:35;6.50;92.30
2042;DHT22;1026;51.460;7.252;2023-03-05T16:11:02;6.50;92.30
2042;DHT22;1026;51.460;7.252;2023-03-05T16:13:30;6.50;92.40
2042;DHT22;1026;51.460;7.252;2023-03-05T16:16:02;6.40;92.30
2042;DHT22;1026;51.460;7.252;2023-03-05T16:18:31;6.50;92.40
2042;DHT22;1026;51.460;7.252;2023-03-05T16:20:59;6.40;92.40
2042;DHT22;1026;51.460;7.252;2023-03-05T16:23:27;6.40;92.40
2042;DHT22;1026;51.460;7.252;2023-03-05T16:25:56;6.30;92.20
2042;DHT22;1026;51.460;7.252;2023-03-05T16:28:23;6.40;92.40
2042;DHT22;1026;51.460;7.252;2023-03-05T16:30:53;6.40;92.40
2042;DHT22;1026;51.460;7.252;2023-03-05T16:33:22;6.40;92.40
2042;DHT22;1026;51.460;7.252;2023-03-05T16:36:20;6.40;92.50
2042;DHT22;1026;51.460;7.252;2023-03-05T16:38:56;6.40;92.40
2042;DHT22;1026;51.460;7.252;2023-03-05T16:41:29;6.40;92.40
2042;DHT22;1026;51.460;7.252;2023-03-05T16:43:58;6.40;92.50
2042;DHT22;1026;51.460;7.252;2023-03-05T16:46:33;6.50;92.50
2042;DHT22;1026;51.460;7.252;2023-03-05T16:49:04;6.40;92.50
2042;DHT22;1026;51.460;7.252;2023-03-05T16:51:34;6.40;92.50
2042;DHT22;1026;51.460;7.252;2023-03-05T16:54:02;6.50;92.50
2042;DHT22;1026;51.460;7.252;2023-03-05T16:56:30;6.40;92.50
2042;DHT22;1026;51.460;7.252;2023-03-05T16:58:58;6.40;92.50
2042;DHT22;1026;51.460;7.252;2023-03-05T17:01:26;6.40;92.50
2042;DHT22;1026;51.460;7.252;2023-03-05T17:03:58;6.40;92.50
2042;DHT22;1026;51.460;7.252;2023-03-05T17:06:27;6.50;92.60
2042;DHT22;1026;51.460;7.252;2023-03-05T17:08:57;6.30;92.40
2042;DHT22;1026;51.460;7.252;2023-03-05T17:11:49;6.40;92.50
2042;DHT22;1026;51.460;7.252;2023-03-05T17:14:16;6.40;92.60
2042;DHT22;1026;51.460;7.252;2023-03-05T17:16:45;6.40;92.50
2042;DHT22;1026;51.460;7.252;2023-03-05T17:19:16;6.30;92.50
2042;DHT22;1026;51.460;7.252;2023-03-05T17:21:46;6.40;92.60
2042;DHT22;1026;51.460;7.252;2023-03-05T17:24:35;6.50;92.60
2042;DHT22;1026;51.460;7.252;2023-03-05T17:27:04;6.50;92.50